sensor_id;sensor_type;location;lat;lon;timestamp;P1;durP1;ratioP1;P2;durP2;ratioP2
60018;SDS011;45870;42.528;26.740;2023-06-04T00:01:34;11.70;;;6.82;;
60018;SDS011;45870;42.528;26.740;2023-06-04T00:04:00;8.35;;;6.03;;
60018;SDS011;45870;42.528;26.740;2023-06-04T00:06:25;8.60;;;6.53;;
60018;SDS011;45870;42.528;26.740;2023-06-04T00:08:51;8.10;;;6.10;;
60018;SDS011;45870;42.528;26.740;2023-06-04T00:11:16;9.98;;;5.93;;
60018;SDS011;45870;42.528;26.740;2023-06-04T00:13:42;8.75;;;6.28;;
60018;SDS011;45870;42.528;26.740;2023-06-04T00:16:08;9.05;;;6.63;;
60018;SDS011;45870;42.528;26.740;2023-06-04T00:18:33;8.10;;;6.32;;
60018;SDS011;45870;42.528;26.740;2023-06-04T00:20:59;12.93;;;6.65;;
60018;SDS011;45870;42.528;26.740;2023-06-04T00:23:25;10.55;;;6.80;;
60018;SDS011;45870;42.528;26.740;2023-06-04T00:25:50;7.50;;;6.22;;
60018;SDS011;45870;42.528;26.740;2023-06-04T00:28:16;15.07;;;6.75;;
60018;SDS011;45870;42.528;26.740;2023-06-04T00:30:42;8.55;;;6.57;;
60018;SDS011;45870;42.528;26.740;2023-06-04T00:33:07;8.25;;;6.63;;
60018;SDS011;45870;42.528;26.740;2023-06-04T00:35:33;8.65;;;6.68;;
60018;SDS011;45870;42.528;26.740;2023-06-04T00:37:59;8.57;;;6.90;;
60018;SDS011;45870;42.528;26.740;2023-06-04T00:40:24;11.68;;;6.90;;
60018;SDS011;45870;42.528;26.740;2023-06-04T00:42:50;9.25;;;7.22;;
60018;SDS011;45870;42.528;26.740;2023-06-04T00:45:17;9.95;;;7.35;;
60018;SDS011;45870;42.528;26.740;2023-06-04T00:47:45;11.63;;;7.22;;
60018;SDS011;45870;42.528;26.740;2023-06-04T00:50:11;11.07;;;7.20;;
60018;SDS011;45870;42.528;26.740;2023-06-04T00:52:38;11.10;;;7.15;;
60018;SDS011;45870;42.528;26.740;2023-06-04T00:55:04;11.45;;;7.32;;
60018;SDS011;45870;42.528;26.740;2023-06-04T00:57:30;9.85;;;7.05;;
60018;SDS011;45870;42.528;26.740;2023-06-04T00:59:56;9.23;;;7.00;;
60018;SDS011;45870;42.528;26.740;2023-06-04T01:02:22;8.27;;;6.88;;
60018;SDS011;45870;42.528;26.740;2023-06-04T01:07:45;11.55;;;6.95;;
60018;SDS011;45870;42.528;26.740;2023-06-04T01:10:15;7.88;;;6.68;;
60018;SDS011;45870;42.528;26.740;2023-06-04T01:12:44;8.27;;;6.85;;
60018;SDS011;45870;42.528;26.740;2023-06-04T01:15:10;9.85;;;7.00;;
60018;SDS011;45870;42.528;26.740;2023-06-04T01:26:08;10.48;;;6.97;;
60018;SDS011;45870;42.528;26.740;2023-06-04T01:28:35;11.88;;;7.15;;
60018;SDS011;45870;42.528;26.740;2023-06-04T01:31:02;12.68;;;7.25;;
60018;SDS011;45870;42.528;26.740;2023-06-04T01:33:32;11.35;;;7.65;;
60018;SDS011;45870;42.528;26.740;2023-06-04T01:35:58;11.30;;;7.43;;
60018;SDS011;45870;42.528;26.740;2023-06-04T01:38:25;10.32;;;7.70;;
60018;SDS011;45870;42.528;26.740;2023-06-04T01:40:50;10.95;;;7.90;;
60018;SDS011;45870;42.528;26.740;2023-06-04T01:43:21;12.68;;;7.55;;
60018;SDS011;45870;42.528;26.740;2023-06-04T01:45:47;11.10;;;7.32;;
60018;SDS011;45870;42.528;26.740;2023-06-04T01:48:13;14.88;;;7.78;;
60018;SDS011;45870;42.528;26.740;2023-06-04T01:50:39;12.20;;;7.93;;
60018;SDS011;45870;42.528;26.740;2023-06-04T01:53:05;10.65;;;7.80;;
60018;SDS011;45870;42.528;26.740;2023-06-04T01:55:31;9.77;;;7.50;;
60018;SDS011;45870;42.528;26.740;2023-06-04T01:57:58;11.88;;;8.30;;
60018;SDS011;45870;42.528;26.740;2023-06-04T02:00:25;11.43;;;7.55;;
60018;SDS011;45870;42.528;26.740;2023-06-04T02:02:51;8.85;;;7.10;;
60018;SDS011;45870;42.528;26.740;2023-06-04T02:05:20;13.60;;;6.30;;
60018;SDS011;45870;42.528;26.740;2023-06-04T02:07:46;10.52;;;7.00;;
60018;SDS011;45870;42.528;26.740;2023-06-04T02:10:13;8.45;;;6.65;;
60018;SDS011;45870;42.528;26.740;2023-06-04T02:12:41;8.98;;;7.00;;
60018;SDS011;45870;42.528;26.740;2023-06-04T02:15:25;16.35;;;7.25;;
60018;SDS011;45870;42.528;26.740;2023-06-04T02:17:54;11.80;;;6.90;;
60018;SDS011;45870;42.528;26.740;2023-06-04T02:20:24;16.77;;;7.38;;
60018;SDS011;45870;42.528;26.740;2023-06-04T02:22:54;10.38;;;7.30;;
60018;SDS011;45870;42.528;26.740;2023-06-04T02:25:21;13.85;;;7.65;;
60018;SDS011;45870;42.528;26.740;2023-06-04T02:27:47;10.68;;;7.55;;
60018;SDS011;45870;42.528;26.740;2023-06-04T02:30:13;10.30;;;7.60;;
60018;SDS011;45870;42.528;26.740;2023-06-04T02:32:40;12.38;;;8.30;;
60018;SDS011;45870;42.528;26.740;2023-06-04T02:35:06;12.30;;;7.70;;
60018;SDS011;45870;42.528;26.740;2023-06-04T02:37:32;13.23;;;7.97;;
60018;SDS011;45870;42.528;26.740;2023-06-04T02:39:58;15.57;;;9.98;;
60018;SDS011;45870;42.528;26.740;2023-06-04T02:42:23;17.48;;;8.77;;
60018;SDS011;45870;42.528;26.740;2023-06-04T02:44:49;11.27;;;8.38;;
60018;SDS011;45870;42.528;26.740;2023-06-04T02:47:15;11.10;;;8.55;;
60018;SDS011;45870;42.528;26.740;2023-06-04T02:49:40;14.38;;;8.98;;
60018;SDS011;45870;42.528;26.740;2023-06-04T02:52:06;14.73;;;9.15;;
60018;SDS011;45870;42.528;26.740;2023-06-04T02:54:32;14.52;;;9.48;;
60018;SDS011;45870;42.528;26.740;2023-06-04T02:56:57;14.68;;;9.50;;
60018;SDS011;45870;42.528;26.740;2023-06-04T02:59:23;13.45;;;9.02;;
60018;SDS011;45870;42.528;26.740;2023-06-04T03:01:49;13.35;;;8.60;;
60018;SDS011;45870;42.528;26.740;2023-06-04T03:04:15;9.48;;;8.10;;
60018;SDS011;45870;42.528;26.740;2023-06-04T03:06:40;11.18;;;9.20;;
60018;SDS011;45870;42.528;26.740;2023-06-04T03:09:11;11.35;;;8.93;;
60018;SDS011;45870;42.528;26.740;2023-06-04T03:11:37;10.63;;;8.23;;
60018;SDS011;45870;42.528;26.740;2023-06-04T03:14:03;13.93;;;8.43;;
60018;SDS011;45870;42.528;26.740;2023-06-04T03:16:28;12.18;;;8.88;;
60018;SDS011;45870;42.528;26.740;2023-06-04T03:18:54;13.27;;;8.73;;
60018;SDS011;45870;42.528;26.740;2023-06-04T03:21:21;12.00;;;8.57;;
60018;SDS011;45870;42.528;26.740;2023-06-04T03:23:47;12.50;;;8.43;;
60018;SDS011;45870;42.528;26.740;2023-06-04T03:26:13;12.73;;;8.82;;
60018;SDS011;45870;42.528;26.740;2023-06-04T03:28:39;12.05;;;9.10;;
60018;SDS011;45870;42.528;26.740;2023-06-04T03:31:05;11.77;;;8.63;;
60018;SDS011;45870;42.528;26.740;2023-06-04T03:33:31;10.48;;;8.30;;
60018;SDS011;45870;42.528;26.740;2023-06-04T03:35:56;9.90;;;7.90;;
60018;SDS011;45870;42.528;26.740;2023-06-04T03:38:24;10.32;;;7.20;;
60018;SDS011;45870;42.528;26.740;2023-06-04T03:40:50;11.60;;;8.23;;
60018;SDS011;45870;42.528;26.740;2023-06-04T03:43:20;9.82;;;7.47;;
60018;SDS011;45870;42.528;26.740;2023-06-04T03:45:46;10.25;;;8.25;;
60018;SDS011;45870;42.528;26.740;2023-06-04T03:48:12;10.75;;;7.10;;
60018;SDS011;45870;42.528;26.740;2023-06-04T03:50:37;11.50;;;7.55;;
60018;SDS011;45870;42.528;26.740;2023-06-04T03:53:03;10.60;;;7.05;;
60018;SDS011;45870;42.528;26.740;2023-06-04T03:55:30;11.38;;;6.85;;
60018;SDS011;45870;42.528;26.740;2023-06-04T03:57:57;13.52;;;6.93;;
60018;SDS011;45870;42.528;26.740;2023-06-04T04:00:23;10.88;;;6.32;;
60018;SDS011;45870;42.528;26.740;2023-06-04T04:02:49;10.20;;;6.15;;
60018;SDS011;45870;42.528;26.740;2023-06-04T04:05:15;9.43;;;5.65;;
60018;SDS011;45870;42.528;26.740;2023-06-04T04:07:43;6.75;;;5.45;;
60018;SDS011;45870;42.528;26.740;2023-06-04T04:10:09;8.65;;;5.28;;
60018;SDS011;45870;42.528;26.740;2023-06-04T04:12:35;9.05;;;5.60;;
60018;SDS011;45870;42.528;26.740;2023-06-04T04:15:01;9.10;;;5.20;;
60018;SDS011;45870;42.528;26.740;2023-06-04T04:17:27;6.82;;;5.03;;
60018;SDS011;45870;42.528;26.740;2023-06-04T04:19:53;7.30;;;5.10;;
60018;SDS011;45870;42.528;26.740;2023-06-04T04:22:18;8.93;;;4.70;;
60018;SDS011;45870;42.528;26.740;2023-06-04T04:24:44;6.72;;;4.90;;
60018;SDS011;45870;42.528;26.740;2023-06-04T04:27:10;7.95;;;5.70;;
60018;SDS011;45870;42.528;26.740;2023-06-04T04:29:40;7.80;;;5.03;;
60018;SDS011;45870;42.528;26.740;2023-06-04T04:32:08;11.88;;;5.10;;
60018;SDS011;45870;42.528;26.740;2023-06-04T04:34:38;12.68;;;5.05;;
60018;SDS011;45870;42.528;26.740;2023-06-04T04:37:04;7.05;;;4.65;;
60018;SDS011;45870;42.528;26.740;2023-06-04T04:39:33;10.38;;;4.53;;
60018;SDS011;45870;42.528;26.740;2023-06-04T04:42:01;6.65;;;4.60;;
60018;SDS011;45870;42.528;26.740;2023-06-04T04:44:28;7.60;;;4.32;;
60018;SDS011;45870;42.528;26.740;2023-06-04T04:46:53;7.28;;;4.90;;
60018;SDS011;45870;42.528;26.740;2023-06-04T04:49:19;8.38;;;4.78;;
60018;SDS011;45870;42.528;26.740;2023-06-04T04:51:46;7.18;;;5.15;;
60018;SDS011;45870;42.528;26.740;2023-06-04T04:54:11;6.10;;;4.63;;
60018;SDS011;45870;42.528;26.740;2023-06-04T04:56:37;6.95;;;5.00;;
60018;SDS011;45870;42.528;26.740;2023-06-04T04:59:03;8.57;;;5.15;;
60018;SDS011;45870;42.528;26.740;2023-06-04T05:01:28;9.18;;;4.95;;
60018;SDS011;45870;42.528;26.740;2023-06-04T05:03:54;12.43;;;5.35;;
60018;SDS011;45870;42.528;26.740;2023-06-04T05:06:20;10.82;;;5.75;;
60018;SDS011;45870;42.528;26.740;2023-06-04T05:08:47;7.90;;;5.18;;
60018;SDS011;45870;42.528;26.740;2023-06-04T05:11:12;11.55;;;5.60;;
60018;SDS011;45870;42.528;26.740;2023-06-04T05:13:38;11.75;;;5.30;;
60018;SDS011;45870;42.528;26.740;2023-06-04T05:16:06;9.52;;;5.97;;
60018;SDS011;45870;42.528;26.740;2023-06-04T05:18:33;8.02;;;4.95;;
60018;SDS011;45870;42.528;26.740;2023-06-04T05:20:59;7.32;;;4.65;;
60018;SDS011;45870;42.528;26.740;2023-06-04T05:23:27;9.98;;;5.15;;
60018;SDS011;45870;42.528;26.740;2023-06-04T05:25:55;6.93;;;4.72;;
60018;SDS011;45870;42.528;26.740;2023-06-04T05:28:21;7.88;;;4.50;;
60018;SDS011;45870;42.528;26.740;2023-06-04T05:30:49;9.15;;;4.78;;
60018;SDS011;45870;42.528;26.740;2023-06-04T05:33:15;5.97;;;4.35;;
60018;SDS011;45870;42.528;26.740;2023-06-04T05:35:45;6.43;;;4.28;;
60018;SDS011;45870;42.528;26.740;2023-06-04T05:38:11;7.43;;;4.13;;
60018;SDS011;45870;42.528;26.740;2023-06-04T05:40:42;8.93;;;4.63;;
60018;SDS011;45870;42.528;26.740;2023-06-04T05:43:08;8.68;;;4.68;;
60018;SDS011;45870;42.528;26.740;2023-06-04T05:45:34;7.30;;;4.50;;
60018;SDS011;45870;42.528;26.740;2023-06-04T05:47:59;6.78;;;4.13;;
60018;SDS011;45870;42.528;26.740;2023-06-04T05:50:25;6.00;;;4.10;;
60018;SDS011;45870;42.528;26.740;2023-06-04T05:52:51;6.05;;;3.67;;
60018;SDS011;45870;42.528;26.740;2023-06-04T05:55:16;7.38;;;4.10;;
60018;SDS011;45870;42.528;26.740;2023-06-04T05:57:42;6.10;;;3.80;;
60018;SDS011;45870;42.528;26.740;2023-06-04T06:00:08;6.80;;;3.78;;
60018;SDS011;45870;42.528;26.740;2023-06-04T06:02:35;17.58;;;11.52;;
60018;SDS011;45870;42.528;26.740;2023-06-04T06:05:01;10.50;;;5.13;;
60018;SDS011;45870;42.528;26.740;2023-06-04T06:07:26;7.47;;;4.45;;
60018;SDS011;45870;42.528;26.740;2023-06-04T06:09:52;7.32;;;4.38;;
60018;SDS011;45870;42.528;26.740;2023-06-04T06:12:18;10.60;;;7.75;;
60018;SDS011;45870;42.528;26.740;2023-06-04T06:14:43;11.45;;;7.63;;
60018;SDS011;45870;42.528;26.740;2023-06-04T06:17:09;13.82;;;8.63;;
60018;SDS011;45870;42.528;26.740;2023-06-04T06:19:35;18.48;;;9.63;;
60018;SDS011;45870;42.528;26.740;2023-06-04T06:22:02;24.65;;;16.17;;
60018;SDS011;45870;42.528;26.740;2023-06-04T06:24:28;7.72;;;3.83;;
60018;SDS011;45870;42.528;26.740;2023-06-04T06:26:54;5.80;;;4.28;;
60018;SDS011;45870;42.528;26.740;2023-06-04T06:29:20;7.55;;;4.50;;
60018;SDS011;45870;42.528;26.740;2023-06-04T06:31:46;8.20;;;3.95;;
60018;SDS011;45870;42.528;26.740;2023-06-04T06:34:12;8.52;;;5.03;;
60018;SDS011;45870;42.528;26.740;2023-06-04T06:36:38;7.45;;;4.07;;
60018;SDS011;45870;42.528;26.740;2023-06-04T06:39:03;5.80;;;3.97;;
60018;SDS011;45870;42.528;26.740;2023-06-04T06:41:29;7.03;;;4.20;;
60018;SDS011;45870;42.528;26.740;2023-06-04T06:43:58;26.20;;;11.48;;
60018;SDS011;45870;42.528;26.740;2023-06-04T06:46:24;14.45;;;5.65;;
60018;SDS011;45870;42.528;26.740;2023-06-04T06:48:50;39.53;;;16.13;;
60018;SDS011;45870;42.528;26.740;2023-06-04T06:51:15;22.70;;;8.57;;
60018;SDS011;45870;42.528;26.740;2023-06-04T06:53:42;26.52;;;12.23;;
60018;SDS011;45870;42.528;26.740;2023-06-04T06:56:13;7.80;;;4.30;;
60018;SDS011;45870;42.528;26.740;2023-06-04T06:58:40;7.50;;;4.20;;
60018;SDS011;45870;42.528;26.740;2023-06-04T07:01:05;6.70;;;4.20;;
60018;SDS011;45870;42.528;26.740;2023-06-04T07:03:32;9.32;;;4.25;;
60018;SDS011;45870;42.528;26.740;2023-06-04T07:05:57;7.05;;;4.25;;
60018;SDS011;45870;42.528;26.740;2023-06-04T07:08:23;6.10;;;4.10;;
60018;SDS011;45870;42.528;26.740;2023-06-04T07:10:49;7.07;;;4.18;;
60018;SDS011;45870;42.528;26.740;2023-06-04T07:13:14;5.55;;;4.18;;
60018;SDS011;45870;42.528;26.740;2023-06-04T07:15:41;5.57;;;4.13;;
60018;SDS011;45870;42.528;26.740;2023-06-04T07:18:07;6.00;;;3.97;;
60018;SDS011;45870;42.528;26.740;2023-06-04T07:20:33;5.63;;;4.20;;
60018;SDS011;45870;42.528;26.740;2023-06-04T07:22:58;10.60;;;4.40;;
60018;SDS011;45870;42.528;26.740;2023-06-04T07:25:24;6.68;;;3.83;;
60018;SDS011;45870;42.528;26.740;2023-06-04T07:27:50;8.73;;;4.55;;
60018;SDS011;45870;42.528;26.740;2023-06-04T07:30:16;7.80;;;3.90;;
60018;SDS011;45870;42.528;26.740;2023-06-04T07:32:47;8.00;;;4.18;;
60018;SDS011;45870;42.528;26.740;2023-06-04T07:35:13;7.15;;;4.13;;
60018;SDS011;45870;42.528;26.740;2023-06-04T07:37:39;6.25;;;4.40;;
60018;SDS011;45870;42.528;26.740;2023-06-04T07:40:05;6.25;;;4.28;;
60018;SDS011;45870;42.528;26.740;2023-06-04T07:42:31;5.68;;;3.80;;
60018;SDS011;45870;42.528;26.740;2023-06-04T07:44:57;5.00;;;4.13;;
60018;SDS011;45870;42.528;26.740;2023-06-04T07:47:22;9.50;;;3.92;;
60018;SDS011;45870;42.528;26.740;2023-06-04T07:49:48;6.25;;;3.92;;
60018;SDS011;45870;42.528;26.740;2023-06-04T07:52:14;6.25;;;3.95;;
60018;SDS011;45870;42.528;26.740;2023-06-04T07:54:40;4.88;;;3.70;;
60018;SDS011;45870;42.528;26.740;2023-06-04T07:57:07;8.10;;;3.92;;
60018;SDS011;45870;42.528;26.740;2023-06-04T07:59:33;5.90;;;3.50;;
60018;SDS011;45870;42.528;26.740;2023-06-04T08:01:59;8.43;;;3.80;;
60018;SDS011;45870;42.528;26.740;2023-06-04T08:04:25;6.25;;;3.90;;
60018;SDS011;45870;42.528;26.740;2023-06-04T08:06:51;9.82;;;3.50;;
60018;SDS011;45870;42.528;26.740;2023-06-04T08:09:17;5.30;;;3.15;;
60018;SDS011;45870;42.528;26.740;2023-06-04T08:11:43;5.32;;;3.42;;
60018;SDS011;45870;42.528;26.740;2023-06-04T08:14:10;5.32;;;3.38;;
60018;SDS011;45870;42.528;26.740;2023-06-04T08:16:36;4.50;;;3.40;;
60018;SDS011;45870;42.528;26.740;2023-06-04T08:19:02;4.55;;;3.35;;
60018;SDS011;45870;42.528;26.740;2023-06-04T08:21:28;8.30;;;3.88;;
60018;SDS011;45870;42.528;26.740;2023-06-04T08:23:54;6.47;;;3.55;;
60018;SDS011;45870;42.528;26.740;2023-06-04T08:26:20;4.65;;;3.53;;
60018;SDS011;45870;42.528;26.740;2023-06-04T08:28:50;4.90;;;3.80;;
60018;SDS011;45870;42.528;26.740;2023-06-04T08:31:16;9.13;;;3.50;;
60018;SDS011;45870;42.528;26.740;2023-06-04T08:33:42;9.25;;;3.28;;
60018;SDS011;45870;42.528;26.740;2023-06-04T08:36:10;6.13;;;3.17;;
60018;SDS011;45870;42.528;26.740;2023-06-04T08:38:35;5.47;;;3.03;;
60018;SDS011;45870;42.528;26.740;2023-06-04T08:41:07;5.55;;;3.28;;
60018;SDS011;45870;42.528;26.740;2023-06-04T08:43:40;9.18;;;3.33;;
60018;SDS011;45870;42.528;26.740;2023-06-04T08:46:09;8.13;;;3.38;;
60018;SDS011;45870;42.528;26.740;2023-06-04T08:48:35;5.00;;;3.08;;
60018;SDS011;45870;42.528;26.740;2023-06-04T08:51:03;7.57;;;3.10;;
60018;SDS011;45870;42.528;26.740;2023-06-04T08:53:32;6.90;;;3.50;;
60018;SDS011;45870;42.528;26.740;2023-06-04T08:55:58;8.15;;;3.35;;
60018;SDS011;45870;42.528;26.740;2023-06-04T08:58:24;6.80;;;3.20;;
60018;SDS011;45870;42.528;26.740;2023-06-04T09:00:51;6.20;;;2.90;;
60018;SDS011;45870;42.528;26.740;2023-06-04T09:03:17;8.63;;;3.55;;
60018;SDS011;45870;42.528;26.740;2023-06-04T09:05:51;6.45;;;2.90;;
60018;SDS011;45870;42.528;26.740;2023-06-04T09:08:25;6.57;;;2.97;;
60018;SDS011;45870;42.528;26.740;2023-06-04T09:10:55;6.80;;;2.85;;
60018;SDS011;45870;42.528;26.740;2023-06-04T09:13:21;4.05;;;2.83;;
60018;SDS011;45870;42.528;26.740;2023-06-04T09:15:58;6.50;;;2.70;;
60018;SDS011;45870;42.528;26.740;2023-06-04T09:18:28;6.75;;;3.03;;
60018;SDS011;45870;42.528;26.740;2023-06-04T09:21:04;4.90;;;3.20;;
60018;SDS011;45870;42.528;26.740;2023-06-04T09:23:34;6.78;;;2.88;;
60018;SDS011;45870;42.528;26.740;2023-06-04T09:26:07;7.28;;;2.65;;
60018;SDS011;45870;42.528;26.740;2023-06-04T09:28:34;5.00;;;3.10;;
60018;SDS011;45870;42.528;26.740;2023-06-04T09:31:00;7.05;;;2.65;;
60018;SDS011;45870;42.528;26.740;2023-06-04T09:33:27;6.60;;;3.08;;
60018;SDS011;45870;42.528;26.740;2023-06-04T09:35:55;4.85;;;2.90;;
60018;SDS011;45870;42.528;26.740;2023-06-04T09:38:22;6.75;;;2.88;;
60018;SDS011;45870;42.528;26.740;2023-06-04T09:40:48;8.63;;;3.08;;
60018;SDS011;45870;42.528;26.740;2023-06-04T09:43:21;6.50;;;2.20;;
60018;SDS011;45870;42.528;26.740;2023-06-04T09:45:50;5.32;;;2.85;;
60018;SDS011;45870;42.528;26.740;2023-06-04T09:48:20;5.97;;;2.70;;
60018;SDS011;45870;42.528;26.740;2023-06-04T09:50:46;4.78;;;2.70;;
60018;SDS011;45870;42.528;26.740;2023-06-04T09:53:15;4.82;;;2.40;;
60018;SDS011;45870;42.528;26.740;2023-06-04T09:55:43;6.57;;;2.67;;
60018;SDS011;45870;42.528;26.740;2023-06-04T09:58:10;5.05;;;2.60;;
60018;SDS011;45870;42.528;26.740;2023-06-04T10:00:37;3.60;;;2.38;;
60018;SDS011;45870;42.528;26.740;2023-06-04T10:03:03;4.32;;;2.58;;
60018;SDS011;45870;42.528;26.740;2023-06-04T10:05:31;8.90;;;3.67;;
60018;SDS011;45870;42.528;26.740;2023-06-04T10:07:59;4.95;;;2.42;;
60018;SDS011;45870;42.528;26.740;2023-06-04T10:10:30;5.40;;;2.50;;
60018;SDS011;45870;42.528;26.740;2023-06-04T10:13:05;5.80;;;2.60;;
60018;SDS011;45870;42.528;26.740;2023-06-04T10:15:35;3.38;;;2.40;;
60018;SDS011;45870;42.528;26.740;2023-06-04T10:18:02;7.00;;;2.53;;
60018;SDS011;45870;42.528;26.740;2023-06-04T10:20:29;4.78;;;2.40;;
60018;SDS011;45870;42.528;26.740;2023-06-04T10:22:56;3.30;;;2.30;;
60018;SDS011;45870;42.528;26.740;2023-06-04T10:25:22;6.90;;;2.90;;
60018;SDS011;45870;42.528;26.740;2023-06-04T10:27:51;6.88;;;2.53;;
60018;SDS011;45870;42.528;26.740;2023-06-04T10:30:18;4.28;;;2.50;;
60018;SDS011;45870;42.528;26.740;2023-06-04T10:32:44;5.20;;;2.63;;
60018;SDS011;45870;42.528;26.740;2023-06-04T10:35:10;8.02;;;2.53;;
60018;SDS011;45870;42.528;26.740;2023-06-04T10:37:36;5.45;;;2.50;;
60018;SDS011;45870;42.528;26.740;2023-06-04T10:40:02;5.60;;;2.92;;
60018;SDS011;45870;42.528;26.740;2023-06-04T10:42:37;6.03;;;3.33;;
60018;SDS011;45870;42.528;26.740;2023-06-04T10:45:04;4.55;;;2.67;;
60018;SDS011;45870;42.528;26.740;2023-06-04T10:47:31;3.95;;;2.60;;
60018;SDS011;45870;42.528;26.740;2023-06-04T10:50:09;6.28;;;2.38;;
60018;SDS011;45870;42.528;26.740;2023-06-04T10:52:36;6.13;;;2.75;;
60018;SDS011;45870;42.528;26.740;2023-06-04T10:55:03;6.63;;;2.78;;
60018;SDS011;45870;42.528;26.740;2023-06-04T10:57:30;6.13;;;2.65;;
60018;SDS011;45870;42.528;26.740;2023-06-04T10:59:57;4.85;;;2.55;;
60018;SDS011;45870;42.528;26.740;2023-06-04T11:02:24;8.13;;;2.45;;
60018;SDS011;45870;42.528;26.740;2023-06-04T11:05:04;3.47;;;2.30;;
60018;SDS011;45870;42.528;26.740;2023-06-04T11:07:43;3.65;;;2.40;;
60018;SDS011;45870;42.528;26.740;2023-06-04T11:10:13;5.90;;;2.63;;
60018;SDS011;45870;42.528;26.740;2023-06-04T11:12:46;5.18;;;2.35;;
60018;SDS011;45870;42.528;26.740;2023-06-04T11:15:13;5.00;;;2.75;;
60018;SDS011;45870;42.528;26.740;2023-06-04T11:17:53;3.88;;;2.30;;
60018;SDS011;45870;42.528;26.740;2023-06-04T11:20:21;6.82;;;2.50;;
60018;SDS011;45870;42.528;26.740;2023-06-04T11:22:51;4.38;;;2.60;;
60018;SDS011;45870;42.528;26.740;2023-06-04T11:25:22;4.85;;;2.40;;
60018;SDS011;45870;42.528;26.740;2023-06-04T11:27:51;6.47;;;2.67;;
60018;SDS011;45870;42.528;26.740;2023-06-04T11:30:20;4.65;;;2.30;;
60018;SDS011;45870;42.528;26.740;2023-06-04T11:32:47;4.45;;;2.38;;
60018;SDS011;45870;42.528;26.740;2023-06-04T11:35:13;4.95;;;2.45;;
60018;SDS011;45870;42.528;26.740;2023-06-04T11:37:40;5.35;;;2.25;;
60018;SDS011;45870;42.528;26.740;2023-06-04T11:40:16;4.63;;;2.50;;
60018;SDS011;45870;42.528;26.740;2023-06-04T11:42:43;5.35;;;2.28;;
60018;SDS011;45870;42.528;26.740;2023-06-04T11:45:11;4.35;;;2.45;;
60018;SDS011;45870;42.528;26.740;2023-06-04T11:47:38;5.50;;;2.53;;
60018;SDS011;45870;42.528;26.740;2023-06-04T11:50:04;5.63;;;2.38;;
60018;SDS011;45870;42.528;26.740;2023-06-04T11:52:31;7.55;;;2.30;;
60018;SDS011;45870;42.528;26.740;2023-06-04T11:54:57;5.90;;;2.80;;
60018;SDS011;45870;42.528;26.740;2023-06-04T11:57:23;3.00;;;2.03;;
60018;SDS011;45870;42.528;26.740;2023-06-04T11:59:51;6.70;;;2.40;;
60018;SDS011;45870;42.528;26.740;2023-06-04T12:02:18;6.13;;;2.30;;
60018;SDS011;45870;42.528;26.740;2023-06-04T12:04:45;2.85;;;2.17;;
60018;SDS011;45870;42.528;26.740;2023-06-04T12:07:10;3.28;;;2.00;;
60018;SDS011;45870;42.528;26.740;2023-06-04T12:09:36;8.07;;;2.35;;
60018;SDS011;45870;42.528;26.740;2023-06-04T12:14:47;3.72;;;2.15;;
60018;SDS011;45870;42.528;26.740;2023-06-04T12:17:12;3.75;;;2.30;;
60018;SDS011;45870;42.528;26.740;2023-06-04T12:19:46;5.53;;;2.20;;
60018;SDS011;45870;42.528;26.740;2023-06-04T12:22:13;7.63;;;2.40;;
60018;SDS011;45870;42.528;26.740;2023-06-04T12:24:49;6.32;;;2.40;;
60018;SDS011;45870;42.528;26.740;2023-06-04T12:27:19;3.30;;;2.30;;
60018;SDS011;45870;42.528;26.740;2023-06-04T12:29:57;3.75;;;2.63;;
60018;SDS011;45870;42.528;26.740;2023-06-04T12:32:25;5.45;;;2.40;;
60018;SDS011;45870;42.528;26.740;2023-06-04T12:34:52;3.78;;;2.33;;
60018;SDS011;45870;42.528;26.740;2023-06-04T12:37:17;5.70;;;2.38;;
60018;SDS011;45870;42.528;26.740;2023-06-04T12:39:45;5.13;;;2.28;;
60018;SDS011;45870;42.528;26.740;2023-06-04T12:42:11;4.93;;;2.38;;
60018;SDS011;45870;42.528;26.740;2023-06-04T12:44:38;3.25;;;2.50;;
60018;SDS011;45870;42.528;26.740;2023-06-04T12:47:05;7.22;;;2.40;;
60018;SDS011;45870;42.528;26.740;2023-06-04T12:49:31;4.80;;;2.58;;
60018;SDS011;45870;42.528;26.740;2023-06-04T12:51:57;5.03;;;2.33;;
60018;SDS011;45870;42.528;26.740;2023-06-04T12:54:23;4.88;;;2.42;;
60018;SDS011;45870;42.528;26.740;2023-06-04T12:56:50;5.25;;;2.10;;
60018;SDS011;45870;42.528;26.740;2023-06-04T12:59:16;6.28;;;2.50;;
60018;SDS011;45870;42.528;26.740;2023-06-04T13:01:48;6.07;;;2.60;;
60018;SDS011;45870;42.528;26.740;2023-06-04T13:04:14;8.10;;;2.50;;
60018;SDS011;45870;42.528;26.740;2023-06-04T13:06:40;4.97;;;2.40;;
60018;SDS011;45870;42.528;26.740;2023-06-04T13:09:06;3.90;;;2.20;;
60018;SDS011;45870;42.528;26.740;2023-06-04T13:11:37;4.80;;;2.20;;
60018;SDS011;45870;42.528;26.740;2023-06-04T13:14:04;7.70;;;2.40;;
60018;SDS011;45870;42.528;26.740;2023-06-04T13:16:30;4.43;;;2.22;;
60018;SDS011;45870;42.528;26.740;2023-06-04T13:18:55;4.07;;;2.40;;
60018;SDS011;45870;42.528;26.740;2023-06-04T13:21:21;3.15;;;2.00;;
60018;SDS011;45870;42.528;26.740;2023-06-04T13:23:47;6.35;;;2.20;;
60018;SDS011;45870;42.528;26.740;2023-06-04T13:26:16;8.65;;;2.88;;
60018;SDS011;45870;42.528;26.740;2023-06-04T13:28:43;7.97;;;2.38;;
60018;SDS011;45870;42.528;26.740;2023-06-04T13:31:12;8.85;;;2.92;;
60018;SDS011;45870;42.528;26.740;2023-06-04T13:33:38;4.65;;;2.30;;
60018;SDS011;45870;42.528;26.740;2023-06-04T13:36:04;7.30;;;2.60;;
60018;SDS011;45870;42.528;26.740;2023-06-04T13:38:32;4.25;;;2.42;;
60018;SDS011;45870;42.528;26.740;2023-06-04T13:40:58;4.22;;;2.10;;
60018;SDS011;45870;42.528;26.740;2023-06-04T13:43:24;5.60;;;2.13;;
60018;SDS011;45870;42.528;26.740;2023-06-04T13:45:50;6.60;;;2.78;;
60018;SDS011;45870;42.528;26.740;2023-06-04T13:48:16;6.40;;;2.10;;
60018;SDS011;45870;42.528;26.740;2023-06-04T13:50:42;7.28;;;2.20;;
60018;SDS011;45870;42.528;26.740;2023-06-04T13:53:09;4.88;;;2.15;;
60018;SDS011;45870;42.528;26.740;2023-06-04T13:55:36;7.05;;;2.03;;
60018;SDS011;45870;42.528;26.740;2023-06-04T13:58:01;5.40;;;1.98;;
60018;SDS011;45870;42.528;26.740;2023-06-04T14:00:27;8.23;;;2.35;;
60018;SDS011;45870;42.528;26.740;2023-06-04T14:02:55;8.88;;;2.20;;
60018;SDS011;45870;42.528;26.740;2023-06-04T14:05:21;6.43;;;2.10;;
60018;SDS011;45870;42.528;26.740;2023-06-04T14:07:47;7.53;;;2.00;;
60018;SDS011;45870;42.528;26.740;2023-06-04T14:10:13;7.43;;;2.25;;
60018;SDS011;45870;42.528;26.740;2023-06-04T14:12:39;8.52;;;2.10;;
60018;SDS011;45870;42.528;26.740;2023-06-04T14:15:09;8.95;;;2.35;;
60018;SDS011;45870;42.528;26.740;2023-06-04T14:17:37;7.40;;;1.80;;
60018;SDS011;45870;42.528;26.740;2023-06-04T14:20:03;8.25;;;2.45;;
60018;SDS011;45870;42.528;26.740;2023-06-04T14:22:37;7.70;;;2.20;;
60018;SDS011;45870;42.528;26.740;2023-06-04T14:25:03;5.72;;;1.70;;
60018;SDS011;45870;42.528;26.740;2023-06-04T14:27:29;9.43;;;2.50;;
60018;SDS011;45870;42.528;26.740;2023-06-04T14:29:55;13.57;;;2.00;;
60018;SDS011;45870;42.528;26.740;2023-06-04T14:32:21;8.23;;;2.15;;
60018;SDS011;45870;42.528;26.740;2023-06-04T14:34:47;6.75;;;1.80;;
60018;SDS011;45870;42.528;26.740;2023-06-04T14:37:13;6.78;;;2.03;;
60018;SDS011;45870;42.528;26.740;2023-06-04T14:39:38;11.30;;;2.05;;
60018;SDS011;45870;42.528;26.740;2023-06-04T14:42:04;6.25;;;1.90;;
60018;SDS011;45870;42.528;26.740;2023-06-04T14:44:30;7.63;;;1.90;;